San Francisco Spirit — WDD4339 — position and weather

sailwx.info

Track history (hours):
 
Tides and Currents Weather Stations Pressure Air Temp Water Temp Dewpoint Dewpoint Depression Visibility Wind Speed Wind Dir Waves Ship Positions

San Francisco Spirit

Owner: Pacific Marine Yacht Charters DBA Signature YAcht Events, San Francisco, CA. More information available from US FCC via Universal Licensing System and Coast Guard Vessel Documentation Center.

Last reported at 2018-Jun-19 21:30 UTC. Time now 2018-Jun-19 21:43 UTC.
Position N 37°54' W 122°26'.

Length 45 m; draft 2.5 m.

Type: Ship. MMSI: 367143460.

Date/timePositionNaut miles runAvg speedWind from/ knotsBaromVisibWave heightAir tempDewpointWater temp
2018-Jun-19 21:30N 37°54' W 122°26'0 0.4
2018-Jun-19 21:00N 37°54' W 122°27'1 1.7
2018-Jun-19 20:30N 37°53' W 122°26'1 1.4
2018-Jun-19 20:00N 37°52' W 122°26'1 2.1
2018-Jun-19 19:30N 37°52' W 122°27'3 6.9
2018-Jun-19 19:00N 37°49' W 122°24'1 2.7
2018-Jun-19 18:30N 37°48' W 122°24'0 0.0
2018-Jun-19 18:00N 37°48' W 122°24'0 0.0
2018-Jun-17 22:12N 37°48' W 122°24'0 0.0
2018-Jun-17 22:00N 37°48' W 122°24'0 0.0
2018-Jun-17 21:30N 37°48' W 122°24'0 0.0
2018-Jun-17 21:00N 37°48' W 122°24'0 0.0
2018-Jun-17 20:30N 37°48' W 122°24'2 3.1
2018-Jun-17 20:00N 37°47' W 122°23'4 7.2
2018-Jun-17 19:30N 37°50' W 122°25'3 5.6
2018-Jun-17 19:00N 37°49' W 122°28'3 6.5
2018-Jun-17 18:30N 37°49' W 122°24'1 0.0
2018-Jun-15 22:04N 37°48' W 122°24'0 0.0
2018-Jun-15 22:00N 37°48' W 122°24'0 0.0
2018-Jun-15 21:31N 37°48' W 122°24'0 0.0
2018-Jun-15 21:00N 37°48' W 122°24'2 4.6
2018-Jun-15 20:30N 37°50' W 122°25'2 4.0
2018-Jun-15 20:00N 37°50' W 122°28'2 4.6
2018-Jun-15 19:30N 37°49' W 122°25'2 3.1
2018-Jun-15 19:00N 37°48' W 122°24'0 0.0
2018-Jun-15 03:27N 37°48' W 122°24'0 0.0
2018-Jun-15 03:01N 37°48' W 122°24'1 2.0
2018-Jun-15 02:31N 37°49' W 122°24'3 5.4
2018-Jun-15 02:00N 37°50' W 122°27'1 2.7
2018-Jun-15 01:30N 37°49' W 122°26'2 4.1
2018-Jun-15 01:00N 37°48' W 122°24'0 0.0
2018-Jun-15 00:30N 37°48' W 122°24'0 0.0
2018-Jun-15 00:00N 37°48' W 122°24'0 0.0
2018-Jun-14 23:30N 37°48' W 122°24'0 0.0
2018-Jun-14 23:00N 37°48' W 122°24'0 0.0
2018-Jun-14 22:31N 37°48' W 122°24'0 0.0
2018-Jun-14 22:00N 37°48' W 122°24'0 0.0
2018-Jun-14 21:30N 37°48' W 122°24'0 0.0
2018-Jun-14 21:00N 37°48' W 122°24'0 0.0
2018-Jun-14 20:30N 37°48' W 122°24'0 0.0
2018-Jun-14 20:00N 37°48' W 122°24'0 0.0
2018-Jun-14 19:30N 37°48' W 122°24'0 0.0
2018-Jun-14 18:59N 37°48' W 122°24'0 0.0
2018-Jun-14 18:30N 37°48' W 122°24'0 0.0
2018-Jun-14 18:00N 37°48' W 122°24'0 0.0
2018-Jun-14 17:30N 37°48' W 122°24'0 0.0
2018-Jun-14 17:00N 37°48' W 122°24'0 0.0
2018-Jun-14 16:30N 37°48' W 122°24'0 0.0
2018-Jun-14 16:00N 37°48' W 122°24'0 0.0
2018-Jun-14 15:30N 37°48' W 122°24'0 0.0
2018-Jun-14 15:00N 37°48' W 122°24'0 0.0
2018-Jun-14 14:30N 37°48' W 122°24'0 0.0
2018-Jun-14 14:00N 37°48' W 122°24'0 0.0
2018-Jun-14 13:30N 37°48' W 122°24'0 0.0
2018-Jun-14 13:00N 37°48' W 122°24'0 0.0
2018-Jun-14 12:30N 37°48' W 122°24'0 0.0
2018-Jun-14 12:00N 37°48' W 122°24'0 0.0
2018-Jun-14 11:30N 37°48' W 122°24'0 0.0
2018-Jun-14 11:00N 37°48' W 122°24'0 0.0
2018-Jun-14 10:30N 37°48' W 122°24'0 0.0
2018-Jun-14 10:00N 37°48' W 122°24'0 0.0
2018-Jun-14 09:30N 37°48' W 122°24'0 0.0
2018-Jun-14 09:01N 37°48' W 122°24'0 0.0
2018-Jun-14 08:30N 37°48' W 122°24'0 0.0
2018-Jun-14 08:00N 37°48' W 122°24'0 0.0
2018-Jun-14 07:29N 37°48' W 122°24'0 0.0
2018-Jun-14 07:00N 37°48' W 122°24'0 0.0
2018-Jun-14 06:30N 37°48' W 122°24'0 0.0
2018-Jun-14 06:00N 37°48' W 122°24'0 0.2
2018-Jun-14 05:30N 37°48' W 122°24'0 0.8
2018-Jun-14 05:00N 37°48' W 122°23'2 4.4
2018-Jun-14 04:30N 37°46' W 122°22'4 7.1
2018-Jun-14 04:00N 37°49' W 122°21'3 6.2
2018-Jun-14 03:30N 37°50' W 122°25'3 5.0
2018-Jun-14 03:00N 37°52' W 122°27'4 7.3
2018-Jun-14 02:30N 37°49' W 122°29'3 6.6
2018-Jun-14 02:00N 37°49' W 122°24'1 2.6
2018-Jun-14 01:30N 37°48' W 122°24'0 0.4
2018-Jun-14 01:00N 37°48' W 122°24'  
Track history (hours):
 
Tides and Currents Weather Stations Pressure Air Temp Water Temp Dewpoint Dewpoint Depression Visibility Wind Speed Wind Dir Waves Ship Positions

San Francisco Spirit

Owner: Pacific Marine Yacht Charters DBA Signature YAcht Events, San Francisco, CA. More information available from US FCC via Universal Licensing System and Coast Guard Vessel Documentation Center.

Last reported at 2018-Jun-19 21:30 UTC. Time now 2018-Jun-19 21:43 UTC.
Position N 37°54' W 122°26'.

Length 45 m; draft 2.5 m.

Type: Ship. MMSI: 367143460.

Date/timePositionNaut miles runAvg speedWind from/ knotsBaromVisibWave heightAir tempDewpointWater temp
2018-Jun-19 21:30N 37°54' W 122°26'0 0.4
2018-Jun-19 21:00N 37°54' W 122°27'1 1.7
2018-Jun-19 20:30N 37°53' W 122°26'1 1.4
2018-Jun-19 20:00N 37°52' W 122°26'1 2.1
2018-Jun-19 19:30N 37°52' W 122°27'3 6.9
2018-Jun-19 19:00N 37°49' W 122°24'1 2.7
2018-Jun-19 18:30N 37°48' W 122°24'0 0.0
2018-Jun-19 18:00N 37°48' W 122°24'0 0.0
2018-Jun-17 22:12N 37°48' W 122°24'0 0.0
2018-Jun-17 22:00N 37°48' W 122°24'0 0.0
2018-Jun-17 21:30N 37°48' W 122°24'0 0.0
2018-Jun-17 21:00N 37°48' W 122°24'0 0.0
2018-Jun-17 20:30N 37°48' W 122°24'2 3.1
2018-Jun-17 20:00N 37°47' W 122°23'4 7.2
2018-Jun-17 19:30N 37°50' W 122°25'3 5.6
2018-Jun-17 19:00N 37°49' W 122°28'3 6.5
2018-Jun-17 18:30N 37°49' W 122°24'1 0.0
2018-Jun-15 22:04N 37°48' W 122°24'0 0.0
2018-Jun-15 22:00N 37°48' W 122°24'0 0.0
2018-Jun-15 21:31N 37°48' W 122°24'0 0.0
2018-Jun-15 21:00N 37°48' W 122°24'2 4.6
2018-Jun-15 20:30N 37°50' W 122°25'2 4.0
2018-Jun-15 20:00N 37°50' W 122°28'2 4.6
2018-Jun-15 19:30N 37°49' W 122°25'2 3.1
2018-Jun-15 19:00N 37°48' W 122°24'0 0.0
2018-Jun-15 03:27N 37°48' W 122°24'0 0.0
2018-Jun-15 03:01N 37°48' W 122°24'1 2.0
2018-Jun-15 02:31N 37°49' W 122°24'3 5.4
2018-Jun-15 02:00N 37°50' W 122°27'1 2.7
2018-Jun-15 01:30N 37°49' W 122°26'2 4.1
2018-Jun-15 01:00N 37°48' W 122°24'0 0.0
2018-Jun-15 00:30N 37°48' W 122°24'0 0.0
2018-Jun-15 00:00N 37°48' W 122°24'0 0.0
2018-Jun-14 23:30N 37°48' W 122°24'0 0.0
2018-Jun-14 23:00N 37°48' W 122°24'0 0.0
2018-Jun-14 22:31N 37°48' W 122°24'0 0.0
2018-Jun-14 22:00N 37°48' W 122°24'0 0.0
2018-Jun-14 21:30N 37°48' W 122°24'0 0.0
2018-Jun-14 21:00N 37°48' W 122°24'0 0.0
2018-Jun-14 20:30N 37°48' W 122°24'0 0.0
2018-Jun-14 20:00N 37°48' W 122°24'0 0.0
2018-Jun-14 19:30N 37°48' W 122°24'0 0.0
2018-Jun-14 18:59N 37°48' W 122°24'0 0.0
2018-Jun-14 18:30N 37°48' W 122°24'0 0.0
2018-Jun-14 18:00N 37°48' W 122°24'0 0.0
2018-Jun-14 17:30N 37°48' W 122°24'0 0.0
2018-Jun-14 17:00N 37°48' W 122°24'0 0.0
2018-Jun-14 16:30N 37°48' W 122°24'0 0.0
2018-Jun-14 16:00N 37°48' W 122°24'0 0.0
2018-Jun-14 15:30N 37°48' W 122°24'0 0.0
2018-Jun-14 15:00N 37°48' W 122°24'0 0.0
2018-Jun-14 14:30N 37°48' W 122°24'0 0.0
2018-Jun-14 14:00N 37°48' W 122°24'0 0.0
2018-Jun-14 13:30N 37°48' W 122°24'0 0.0
2018-Jun-14 13:00N 37°48' W 122°24'0 0.0
2018-Jun-14 12:30N 37°48' W 122°24'0 0.0
2018-Jun-14 12:00N 37°48' W 122°24'0 0.0
2018-Jun-14 11:30N 37°48' W 122°24'0 0.0
2018-Jun-14 11:00N 37°48' W 122°24'0 0.0
2018-Jun-14 10:30N 37°48' W 122°24'0 0.0
2018-Jun-14 10:00N 37°48' W 122°24'0 0.0
2018-Jun-14 09:30N 37°48' W 122°24'0 0.0
2018-Jun-14 09:01N 37°48' W 122°24'0 0.0
2018-Jun-14 08:30N 37°48' W 122°24'0 0.0
2018-Jun-14 08:00N 37°48' W 122°24'0 0.0
2018-Jun-14 07:29N 37°48' W 122°24'0 0.0
2018-Jun-14 07:00N 37°48' W 122°24'0 0.0
2018-Jun-14 06:30N 37°48' W 122°24'0 0.0
2018-Jun-14 06:00N 37°48' W 122°24'0 0.2
2018-Jun-14 05:30N 37°48' W 122°24'0 0.8
2018-Jun-14 05:00N 37°48' W 122°23'2 4.4
2018-Jun-14 04:30N 37°46' W 122°22'4 7.1
2018-Jun-14 04:00N 37°49' W 122°21'3 6.2
2018-Jun-14 03:30N 37°50' W 122°25'3 5.0
2018-Jun-14 03:00N 37°52' W 122°27'4 7.3
2018-Jun-14 02:30N 37°49' W 122°29'3 6.6
2018-Jun-14 02:00N 37°49' W 122°24'1 2.6
2018-Jun-14 01:30N 37°48' W 122°24'0 0.4
2018-Jun-14 01:00N 37°48' W 122°24'  

Dump ship's entire track history